Dublin, Ohio
Current Conditions -  °F | °C
As of 5:53 AM on Friday 31 Oct 2014 (Local Time) from KOSU Reporting Station
Overcast Overcast  
Wind Chill: 39°   Ceiling: 7000
Heat Index: 42°   Visibility: 10mi
Dew Point: 35°   Wind: 5mph
Humidity: 76%   Direction: 210°SSW
Pressure: 29.98"   Gusts: NA
Location:  40.11°N, 83.13°W
Report Text: KOSU 310953Z AUTO 21004KT 10SM FEW050 BKN070 OVC090 06/02 A2998 RMK AO2 SLP154 T00560017
Loading
Personal Weather Stations






























Interactive Weather Map
Tropical Storm Tracking
New forecast layout! Learn more

10-Day Weather Forecast

Advertisements
Track Severe Weather on mobile